sensor_id;sensor_type;location;lat;lon;timestamp;pressure;altitude;pressure_sealevel;temperature;humidity
9523;BME280;63165;43.016;25.784;2022-12-29T00:00:20;101158.84;;;3.68;80.56
9523;BME280;63165;43.016;25.784;2022-12-29T00:02:47;101158.84;;;3.68;79.93
9523;BME280;63165;43.016;25.784;2022-12-29T00:05:16;101154.41;;;3.66;79.82
9523;BME280;63165;43.016;25.784;2022-12-29T00:07:43;101158.56;;;3.61;79.41
9523;BME280;63165;43.016;25.784;2022-12-29T00:10:10;101159.28;;;3.55;79.37
9523;BME280;63165;43.016;25.784;2022-12-29T00:12:37;101156.50;;;3.49;79.34
9523;BME280;63165;43.016;25.784;2022-12-29T00:15:22;101163.34;;;3.47;79.08
9523;BME280;63165;43.016;25.784;2022-12-29T00:18:05;101165.84;;;3.44;78.98
9523;BME280;63165;43.016;25.784;2022-12-29T00:20:35;101167.44;;;3.39;79.14
9523;BME280;63165;43.016;25.784;2022-12-29T00:23:19;101163.94;;;3.37;78.92
9523;BME280;63165;43.016;25.784;2022-12-29T00:26:10;101167.03;;;3.26;78.69
9523;BME280;63165;43.016;25.784;2022-12-29T00:28:56;101164.28;;;3.20;78.82
9523;BME280;63165;43.016;25.784;2022-12-29T00:31:41;101171.06;;;3.17;78.39
9523;BME280;63165;43.016;25.784;2022-12-29T00:34:25;101170.88;;;3.12;78.56
9523;BME280;63165;43.016;25.784;2022-12-29T00:37:11;101164.75;;;3.08;78.55
9523;BME280;63165;43.016;25.784;2022-12-29T00:39:38;101173.25;;;3.04;78.52
9523;BME280;63165;43.016;25.784;2022-12-29T00:42:23;101169.66;;;3.01;78.32
9523;BME280;63165;43.016;25.784;2022-12-29T00:45:07;101175.47;;;2.94;78.18
9523;BME280;63165;43.016;25.784;2022-12-29T00:47:35;101182.22;;;2.88;78.50
9523;BME280;63165;43.016;25.784;2022-12-29T00:50:03;101181.31;;;2.88;78.73
9523;BME280;63165;43.016;25.784;2022-12-29T00:52:30;101178.72;;;2.86;78.44
9523;BME280;63165;43.016;25.784;2022-12-29T00:54:58;101183.72;;;2.82;77.90
9523;BME280;63165;43.016;25.784;2022-12-29T00:57:25;101186.78;;;2.70;78.13
9523;BME280;63165;43.016;25.784;2022-12-29T00:59:52;101177.88;;;2.62;78.43
9523;BME280;63165;43.016;25.784;2022-12-29T01:02:19;101180.38;;;2.59;78.36
9523;BME280;63165;43.016;25.784;2022-12-29T01:04:46;101176.78;;;2.55;78.65
9523;BME280;63165;43.016;25.784;2022-12-29T01:07:14;101175.69;;;2.48;78.76
9523;BME280;63165;43.016;25.784;2022-12-29T01:09:42;101173.72;;;2.41;79.10
9523;BME280;63165;43.016;25.784;2022-12-29T01:12:27;101176.28;;;2.40;79.44
9523;BME280;63165;43.016;25.784;2022-12-29T01:15:10;101167.53;;;2.36;79.32
9523;BME280;63165;43.016;25.784;2022-12-29T01:17:38;101171.13;;;2.40;79.27
9523;BME280;63165;43.016;25.784;2022-12-29T01:20:06;101173.84;;;2.44;79.50
9523;BME280;63165;43.016;25.784;2022-12-29T01:22:33;101176.47;;;2.46;79.07
9523;BME280;63165;43.016;25.784;2022-12-29T01:25:02;101182.69;;;2.51;79.42
9523;BME280;63165;43.016;25.784;2022-12-29T01:27:30;101181.13;;;2.56;79.50
9523;BME280;63165;43.016;25.784;2022-12-29T01:29:57;101183.81;;;2.59;78.93
9523;BME280;63165;43.016;25.784;2022-12-29T01:32:24;101181.41;;;2.64;78.98
9523;BME280;63165;43.016;25.784;2022-12-29T01:34:51;101175.41;;;2.65;78.75
9523;BME280;63165;43.016;25.784;2022-12-29T01:37:19;101176.13;;;2.61;78.62
9523;BME280;63165;43.016;25.784;2022-12-29T01:39:46;101174.16;;;2.53;78.50
9523;BME280;63165;43.016;25.784;2022-12-29T01:42:17;101177.34;;;2.46;78.54
9523;BME280;63165;43.016;25.784;2022-12-29T01:44:51;101165.03;;;2.39;78.95
9523;BME280;63165;43.016;25.784;2022-12-29T01:47:25;101159.88;;;2.39;78.99
9523;BME280;63165;43.016;25.784;2022-12-29T01:49:55;101155.50;;;2.37;79.15
9523;BME280;63165;43.016;25.784;2022-12-29T01:52:25;101148.63;;;2.37;78.81
9523;BME280;63165;43.016;25.784;2022-12-29T01:54:55;101156.44;;;2.39;79.08
9523;BME280;63165;43.016;25.784;2022-12-29T01:57:29;101152.25;;;2.42;78.92
9523;BME280;63165;43.016;25.784;2022-12-29T02:00:01;101154.94;;;2.45;78.97
9523;BME280;63165;43.016;25.784;2022-12-29T02:02:30;101155.81;;;2.46;78.88
9523;BME280;63165;43.016;25.784;2022-12-29T02:04:59;101151.47;;;2.45;78.91
9523;BME280;63165;43.016;25.784;2022-12-29T02:07:29;101148.13;;;2.47;78.59
9523;BME280;63165;43.016;25.784;2022-12-29T02:10:00;101144.81;;;2.51;78.59
9523;BME280;63165;43.016;25.784;2022-12-29T02:12:30;101148.31;;;2.53;78.33
9523;BME280;63165;43.016;25.784;2022-12-29T02:14:59;101141.44;;;2.54;78.20
9523;BME280;63165;43.016;25.784;2022-12-29T02:17:43;101138.03;;;2.55;78.22
9523;BME280;63165;43.016;25.784;2022-12-29T02:20:48;101129.38;;;2.53;78.10
9523;BME280;63165;43.016;25.784;2022-12-29T02:23:56;101134.41;;;2.50;77.90
9523;BME280;63165;43.016;25.784;2022-12-29T02:26:46;101132.69;;;2.49;77.92
9523;BME280;63165;43.016;25.784;2022-12-29T02:29:52;101133.50;;;2.48;77.86
9523;BME280;63165;43.016;25.784;2022-12-29T02:32:30;101130.03;;;2.47;77.45
9523;BME280;63165;43.016;25.784;2022-12-29T02:35:09;101124.69;;;2.43;77.62
9523;BME280;63165;43.016;25.784;2022-12-29T02:37:43;101116.16;;;2.44;77.41
9523;BME280;63165;43.016;25.784;2022-12-29T02:40:20;101108.19;;;2.38;77.48
9523;BME280;63165;43.016;25.784;2022-12-29T02:42:53;101108.13;;;2.36;77.65
9523;BME280;63165;43.016;25.784;2022-12-29T02:45:29;101105.38;;;2.31;77.70
9523;BME280;63165;43.016;25.784;2022-12-29T02:48:04;101102.84;;;2.33;78.22
9523;BME280;63165;43.016;25.784;2022-12-29T02:50:37;101095.06;;;2.31;77.87
9523;BME280;63165;43.016;25.784;2022-12-29T02:53:09;101098.47;;;2.30;78.38
9523;BME280;63165;43.016;25.784;2022-12-29T02:55:37;101100.22;;;2.31;78.33
9523;BME280;63165;43.016;25.784;2022-12-29T02:58:17;101090.81;;;2.33;78.94
9523;BME280;63165;43.016;25.784;2022-12-29T03:00:56;101091.00;;;2.38;78.95
9523;BME280;63165;43.016;25.784;2022-12-29T03:03:36;101084.06;;;2.37;79.05
9523;BME280;63165;43.016;25.784;2022-12-29T03:06:17;101094.44;;;2.39;79.29
9523;BME280;63165;43.016;25.784;2022-12-29T03:08:52;101098.72;;;2.38;79.41
9523;BME280;63165;43.016;25.784;2022-12-29T03:11:24;101093.66;;;2.41;79.81
9523;BME280;63165;43.016;25.784;2022-12-29T03:14:16;101091.03;;;2.40;80.00
9523;BME280;63165;43.016;25.784;2022-12-29T03:17:08;101092.84;;;2.42;80.54
9523;BME280;63165;43.016;25.784;2022-12-29T03:19:43;101096.41;;;2.46;80.21
9523;BME280;63165;43.016;25.784;2022-12-29T03:22:15;101096.47;;;2.47;80.55
9523;BME280;63165;43.016;25.784;2022-12-29T03:24:56;101103.41;;;2.50;80.79
9523;BME280;63165;43.016;25.784;2022-12-29T03:27:28;101104.28;;;2.50;80.91
9523;BME280;63165;43.016;25.784;2022-12-29T03:29:59;101098.38;;;2.53;80.75
9523;BME280;63165;43.016;25.784;2022-12-29T03:32:32;101095.00;;;2.56;81.13
9523;BME280;63165;43.016;25.784;2022-12-29T03:35:03;101097.75;;;2.60;81.04
9523;BME280;63165;43.016;25.784;2022-12-29T03:37:35;101093.50;;;2.62;81.48
9523;BME280;63165;43.016;25.784;2022-12-29T03:40:05;101092.66;;;2.63;81.54
9523;BME280;63165;43.016;25.784;2022-12-29T03:42:34;101090.13;;;2.65;81.30
9523;BME280;63165;43.016;25.784;2022-12-29T03:45:04;101088.41;;;2.65;81.76
9523;BME280;63165;43.016;25.784;2022-12-29T03:47:32;101097.88;;;2.65;81.46
9523;BME280;63165;43.016;25.784;2022-12-29T03:49:59;101104.84;;;2.67;81.74
9523;BME280;63165;43.016;25.784;2022-12-29T03:52:27;101105.75;;;2.68;81.89
9523;BME280;63165;43.016;25.784;2022-12-29T03:54:55;101113.69;;;2.74;82.05
9523;BME280;63165;43.016;25.784;2022-12-29T03:57:22;101111.16;;;2.76;82.14
9523;BME280;63165;43.016;25.784;2022-12-29T03:59:49;101109.53;;;2.79;82.06
9523;BME280;63165;43.016;25.784;2022-12-29T04:02:16;101105.25;;;2.80;82.45
9523;BME280;63165;43.016;25.784;2022-12-29T04:04:43;101106.13;;;2.80;82.21
9523;BME280;63165;43.016;25.784;2022-12-29T04:07:11;101109.53;;;2.79;82.21
9523;BME280;63165;43.016;25.784;2022-12-29T04:09:39;101106.03;;;2.77;81.78
9523;BME280;63165;43.016;25.784;2022-12-29T04:12:07;101102.47;;;2.74;81.69
9523;BME280;63165;43.016;25.784;2022-12-29T04:14:34;101099.66;;;2.67;81.70
9523;BME280;63165;43.016;25.784;2022-12-29T04:17:01;101100.53;;;2.66;81.56
9523;BME280;63165;43.016;25.784;2022-12-29T04:19:28;101100.41;;;2.63;81.77
9523;BME280;63165;43.016;25.784;2022-12-29T04:21:55;101104.66;;;2.61;81.94
9523;BME280;63165;43.016;25.784;2022-12-29T04:24:23;101101.25;;;2.62;82.15
9523;BME280;63165;43.016;25.784;2022-12-29T04:26:52;101107.28;;;2.63;82.25
9523;BME280;63165;43.016;25.784;2022-12-29T04:29:19;101100.53;;;2.66;82.60
9523;BME280;63165;43.016;25.784;2022-12-29T04:31:46;101104.13;;;2.71;82.58
9523;BME280;63165;43.016;25.784;2022-12-29T04:34:13;101101.56;;;2.73;82.93
9523;BME280;63165;43.016;25.784;2022-12-29T04:36:41;101106.91;;;2.78;82.77
9523;BME280;63165;43.016;25.784;2022-12-29T04:39:08;101112.13;;;2.79;82.77
9523;BME280;63165;43.016;25.784;2022-12-29T04:41:35;101105.13;;;2.77;82.50
9523;BME280;63165;43.016;25.784;2022-12-29T04:44:04;101110.38;;;2.78;82.84
9523;BME280;63165;43.016;25.784;2022-12-29T04:46:31;101119.97;;;2.82;82.40
9523;BME280;63165;43.016;25.784;2022-12-29T04:48:58;101106.97;;;2.79;82.44
9523;BME280;63165;43.016;25.784;2022-12-29T04:51:33;101107.09;;;2.84;82.12
9523;BME280;63165;43.016;25.784;2022-12-29T04:54:00;101116.44;;;2.80;82.00
9523;BME280;63165;43.016;25.784;2022-12-29T04:56:27;101116.44;;;2.80;81.83
9523;BME280;63165;43.016;25.784;2022-12-29T04:58:54;101113.84;;;2.79;81.76
9523;BME280;63165;43.016;25.784;2022-12-29T05:01:23;101119.88;;;2.79;81.57
9523;BME280;63165;43.016;25.784;2022-12-29T05:03:51;101118.06;;;2.77;81.58
9523;BME280;63165;43.016;25.784;2022-12-29T05:06:19;101130.13;;;2.76;81.26
9523;BME280;63165;43.016;25.784;2022-12-29T05:08:46;101124.81;;;2.71;81.03
9523;BME280;63165;43.016;25.784;2022-12-29T05:11:13;101121.00;;;2.60;80.86
9523;BME280;63165;43.016;25.784;2022-12-29T05:13:41;101131.94;;;2.53;80.90
9523;BME280;63165;43.016;25.784;2022-12-29T05:16:08;101132.75;;;2.52;81.28
9523;BME280;63165;43.016;25.784;2022-12-29T05:18:37;101131.03;;;2.51;81.26
9523;BME280;63165;43.016;25.784;2022-12-29T05:21:05;101133.56;;;2.49;80.48
9523;BME280;63165;43.016;25.784;2022-12-29T05:23:32;101135.16;;;2.46;80.32
9523;BME280;63165;43.016;25.784;2022-12-29T05:26:00;101129.78;;;2.40;79.83
9523;BME280;63165;43.016;25.784;2022-12-29T05:28:28;101133.91;;;2.35;79.61
9523;BME280;63165;43.016;25.784;2022-12-29T05:30:55;101135.44;;;2.29;79.84
9523;BME280;63165;43.016;25.784;2022-12-29T05:33:22;101133.72;;;2.28;79.70
9523;BME280;63165;43.016;25.784;2022-12-29T05:35:51;101128.47;;;2.27;79.44
9523;BME280;63165;43.016;25.784;2022-12-29T05:38:18;101126.66;;;2.24;79.40
9523;BME280;63165;43.016;25.784;2022-12-29T05:40:46;101130.94;;;2.24;78.81
9523;BME280;63165;43.016;25.784;2022-12-29T05:43:13;101135.38;;;2.26;78.53
9523;BME280;63165;43.016;25.784;2022-12-29T05:45:41;101137.97;;;2.28;78.93
9523;BME280;63165;43.016;25.784;2022-12-29T05:48:08;101146.66;;;2.30;78.67
9523;BME280;63165;43.016;25.784;2022-12-29T05:50:47;101147.50;;;2.29;78.84
9523;BME280;63165;43.016;25.784;2022-12-29T05:53:17;101141.53;;;2.31;78.71
9523;BME280;63165;43.016;25.784;2022-12-29T05:55:45;101141.59;;;2.33;78.19
9523;BME280;63165;43.016;25.784;2022-12-29T05:58:13;101150.13;;;2.30;77.41
9523;BME280;63165;43.016;25.784;2022-12-29T06:00:41;101152.59;;;2.27;77.11
9523;BME280;63165;43.016;25.784;2022-12-29T06:03:08;101155.03;;;2.23;76.92
9523;BME280;63165;43.016;25.784;2022-12-29T06:05:37;101159.22;;;2.19;76.68
9523;BME280;63165;43.016;25.784;2022-12-29T06:08:06;101158.09;;;2.12;77.20
9523;BME280;63165;43.016;25.784;2022-12-29T06:10:35;101169.25;;;2.11;77.10
9523;BME280;63165;43.016;25.784;2022-12-29T06:13:02;101164.97;;;2.12;77.25
9523;BME280;63165;43.016;25.784;2022-12-29T06:15:31;101176.88;;;2.08;76.52
9523;BME280;63165;43.016;25.784;2022-12-29T06:17:59;101169.94;;;2.06;76.70
9523;BME280;63165;43.016;25.784;2022-12-29T06:20:26;101173.53;;;2.11;76.86
9523;BME280;63165;43.016;25.784;2022-12-29T06:22:53;101167.44;;;2.09;76.99
9523;BME280;63165;43.016;25.784;2022-12-29T06:25:21;101168.94;;;2.02;76.91
9523;BME280;63165;43.016;25.784;2022-12-29T06:27:49;101167.16;;;2.01;77.26
9523;BME280;63165;43.016;25.784;2022-12-29T06:30:17;101175.78;;;2.02;77.63
9523;BME280;63165;43.016;25.784;2022-12-29T06:32:44;101162.88;;;2.02;77.45
9523;BME280;63165;43.016;25.784;2022-12-29T06:35:11;101166.44;;;2.05;78.01
9523;BME280;63165;43.016;25.784;2022-12-29T06:37:39;101163.91;;;2.07;78.08
9523;BME280;63165;43.016;25.784;2022-12-29T06:40:07;101158.69;;;2.05;78.99
9523;BME280;63165;43.016;25.784;2022-12-29T06:42:35;101162.13;;;2.04;79.40
9523;BME280;63165;43.016;25.784;2022-12-29T06:45:04;101163.00;;;2.05;79.73
9523;BME280;63165;43.016;25.784;2022-12-29T06:47:32;101171.72;;;2.08;79.44
9523;BME280;63165;43.016;25.784;2022-12-29T06:50:00;101164.13;;;2.13;79.55
9523;BME280;63165;43.016;25.784;2022-12-29T06:52:27;101171.00;;;2.12;79.77
9523;BME280;63165;43.016;25.784;2022-12-29T06:54:55;101172.13;;;2.19;79.37
9523;BME280;63165;43.016;25.784;2022-12-29T06:57:22;101169.63;;;2.22;80.04
9523;BME280;63165;43.016;25.784;2022-12-29T06:59:49;101173.19;;;2.26;79.89
9523;BME280;63165;43.016;25.784;2022-12-29T07:02:18;101182.78;;;2.28;79.74
9523;BME280;63165;43.016;25.784;2022-12-29T07:04:45;101174.38;;;2.34;80.08
9523;BME280;63165;43.016;25.784;2022-12-29T07:07:13;101175.28;;;2.36;80.12
9523;BME280;63165;43.016;25.784;2022-12-29T07:09:40;101176.34;;;2.43;80.16
9523;BME280;63165;43.016;25.784;2022-12-29T07:12:07;101180.84;;;2.48;79.79
9523;BME280;63165;43.016;25.784;2022-12-29T07:14:34;101184.50;;;2.53;80.00
9523;BME280;63165;43.016;25.784;2022-12-29T07:17:02;101182.09;;;2.60;80.21
9523;BME280;63165;43.016;25.784;2022-12-29T07:19:33;101177.19;;;2.67;80.53
9523;BME280;63165;43.016;25.784;2022-12-29T07:22:00;101183.41;;;2.72;80.93
9523;BME280;63165;43.016;25.784;2022-12-29T07:24:27;101186.28;;;2.82;81.06
9523;BME280;63165;43.016;25.784;2022-12-29T07:26:55;101184.69;;;2.85;81.33
9523;BME280;63165;43.016;25.784;2022-12-29T07:29:22;101190.09;;;2.93;81.96
9523;BME280;63165;43.016;25.784;2022-12-29T07:31:49;101184.25;;;2.99;82.23
9523;BME280;63165;43.016;25.784;2022-12-29T07:34:17;101180.19;;;3.05;82.69
9523;BME280;63165;43.016;25.784;2022-12-29T07:36:45;101181.22;;;3.12;83.70
9523;BME280;63165;43.016;25.784;2022-12-29T07:39:13;101177.25;;;3.22;83.95
9523;BME280;63165;43.016;25.784;2022-12-29T07:41:40;101173.13;;;3.28;84.18
9523;BME280;63165;43.016;25.784;2022-12-29T07:44:08;101175.09;;;3.36;84.88
9523;BME280;63165;43.016;25.784;2022-12-29T07:46:35;101170.09;;;3.42;85.23
9523;BME280;63165;43.016;25.784;2022-12-29T07:49:02;101177.31;;;3.52;85.77
9523;BME280;63165;43.016;25.784;2022-12-29T07:51:29;101162.06;;;3.61;86.19
9523;BME280;63165;43.016;25.784;2022-12-29T07:53:59;101172.75;;;3.74;86.66
9523;BME280;63165;43.016;25.784;2022-12-29T07:56:27;101158.38;;;3.83;87.10
9523;BME280;63165;43.016;25.784;2022-12-29T07:58:54;101168.25;;;3.97;87.33
9523;BME280;63165;43.016;25.784;2022-12-29T08:01:21;101167.63;;;4.05;86.87
9523;BME280;63165;43.016;25.784;2022-12-29T08:03:49;101162.63;;;4.12;86.96
9523;BME280;63165;43.016;25.784;2022-12-29T08:06:16;101168.94;;;4.21;86.96
9523;BME280;63165;43.016;25.784;2022-12-29T08:08:44;101167.38;;;4.26;87.02
9523;BME280;63165;43.016;25.784;2022-12-29T08:11:13;101171.88;;;4.35;87.10
9523;BME280;63165;43.016;25.784;2022-12-29T08:13:40;101173.78;;;4.41;87.06
9523;BME280;63165;43.016;25.784;2022-12-29T08:16:07;101163.69;;;4.52;87.19
9523;BME280;63165;43.016;25.784;2022-12-29T08:18:34;101171.69;;;4.61;86.94
9523;BME280;63165;43.016;25.784;2022-12-29T08:21:02;101167.53;;;4.67;87.00
9523;BME280;63165;43.016;25.784;2022-12-29T08:23:30;101166.84;;;4.75;87.04
9523;BME280;63165;43.016;25.784;2022-12-29T08:25:58;101168.81;;;4.83;87.11
9523;BME280;63165;43.016;25.784;2022-12-29T08:28:27;101169.84;;;4.90;87.43
9523;BME280;63165;43.016;25.784;2022-12-29T08:30:57;101164.84;;;4.98;87.94
9523;BME280;63165;43.016;25.784;2022-12-29T08:33:25;101175.44;;;5.07;87.67
9523;BME280;63165;43.016;25.784;2022-12-29T08:35:52;101156.56;;;5.13;87.55
9523;BME280;63165;43.016;25.784;2022-12-29T08:38:19;101150.75;;;5.24;87.73
9523;BME280;63165;43.016;25.784;2022-12-29T08:40:46;101157.91;;;5.35;87.83
9523;BME280;63165;43.016;25.784;2022-12-29T08:43:14;101152.16;;;5.50;87.62
9523;BME280;63165;43.016;25.784;2022-12-29T08:45:42;101157.69;;;5.63;87.50
9523;BME280;63165;43.016;25.784;2022-12-29T08:48:09;101149.22;;;5.74;86.96
9523;BME280;63165;43.016;25.784;2022-12-29T08:50:36;101155.63;;;5.90;86.45
9523;BME280;63165;43.016;25.784;2022-12-29T08:53:04;101140.22;;;5.97;86.20
9523;BME280;63165;43.016;25.784;2022-12-29T08:55:31;101147.28;;;6.05;85.63
9523;BME280;63165;43.016;25.784;2022-12-29T08:57:58;101139.66;;;6.12;85.14
9523;BME280;63165;43.016;25.784;2022-12-29T09:00:25;101139.75;;;6.18;85.31
9523;BME280;63165;43.016;25.784;2022-12-29T09:02:54;101137.25;;;6.25;85.21
9523;BME280;63165;43.016;25.784;2022-12-29T09:05:21;101141.75;;;6.33;84.93
9523;BME280;63165;43.016;25.784;2022-12-29T09:07:48;101136.72;;;6.43;84.84
9523;BME280;63165;43.016;25.784;2022-12-29T09:10:16;101130.78;;;6.50;84.49
9523;BME280;63165;43.016;25.784;2022-12-29T09:12:43;101130.06;;;6.57;84.25
9523;BME280;63165;43.016;25.784;2022-12-29T09:15:10;101132.78;;;6.65;83.82
9523;BME280;63165;43.016;25.784;2022-12-29T09:17:38;101124.22;;;6.72;83.84
9523;BME280;63165;43.016;25.784;2022-12-29T09:20:12;101113.03;;;6.76;83.48
9523;BME280;63165;43.016;25.784;2022-12-29T09:22:42;101108.00;;;6.87;83.76
9523;BME280;63165;43.016;25.784;2022-12-29T09:25:10;101109.03;;;6.98;82.91
9523;BME280;63165;43.016;25.784;2022-12-29T09:27:37;101105.69;;;7.05;82.65
9523;BME280;63165;43.016;25.784;2022-12-29T09:30:09;101097.09;;;7.12;82.11
9523;BME280;63165;43.016;25.784;2022-12-29T09:32:37;101092.88;;;7.21;82.02
9523;BME280;63165;43.016;25.784;2022-12-29T09:35:04;101092.94;;;7.25;81.71
9523;BME280;63165;43.016;25.784;2022-12-29T09:37:33;101087.88;;;7.36;81.89
9523;BME280;63165;43.016;25.784;2022-12-29T09:40:01;101081.97;;;7.49;81.61
9523;BME280;63165;43.016;25.784;2022-12-29T09:42:34;101083.81;;;7.58;81.06
9523;BME280;63165;43.016;25.784;2022-12-29T09:45:11;101080.44;;;7.67;80.40
9523;BME280;63165;43.016;25.784;2022-12-29T09:47:41;101078.81;;;7.76;80.73
9523;BME280;63165;43.016;25.784;2022-12-29T09:50:19;101066.72;;;7.80;80.46
9523;BME280;63165;43.016;25.784;2022-12-29T09:52:53;101066.00;;;7.95;80.53
9523;BME280;63165;43.016;25.784;2022-12-29T09:55:25;101058.28;;;8.07;80.01
9523;BME280;63165;43.016;25.784;2022-12-29T09:57:59;101051.50;;;8.23;79.92
9523;BME280;63165;43.016;25.784;2022-12-29T10:00:36;101048.09;;;8.33;78.99
9523;BME280;63165;43.016;25.784;2022-12-29T10:03:12;101047.34;;;8.42;78.07
9523;BME280;63165;43.016;25.784;2022-12-29T10:05:48;101036.13;;;8.54;77.51
9523;BME280;63165;43.016;25.784;2022-12-29T10:08:28;101038.78;;;8.62;77.15
9523;BME280;63165;43.016;25.784;2022-12-29T10:11:00;101038.00;;;8.70;76.52
9523;BME280;63165;43.016;25.784;2022-12-29T10:13:42;101031.09;;;8.80;76.16
9523;BME280;63165;43.016;25.784;2022-12-29T10:16:17;101031.16;;;8.91;75.32
9523;BME280;63165;43.016;25.784;2022-12-29T10:19:06;101025.13;;;9.01;74.46
9523;BME280;63165;43.016;25.784;2022-12-29T10:21:49;101029.53;;;9.11;74.50
9523;BME280;63165;43.016;25.784;2022-12-29T10:24:21;101023.50;;;9.23;74.37
9523;BME280;63165;43.016;25.784;2022-12-29T10:26:51;101027.91;;;9.38;73.96
9523;BME280;63165;43.016;25.784;2022-12-29T10:29:20;101027.09;;;9.51;73.12
9523;BME280;63165;43.016;25.784;2022-12-29T10:31:52;101023.66;;;9.63;71.98
9523;BME280;63165;43.016;25.784;2022-12-29T10:34:23;101023.66;;;9.74;71.20
9523;BME280;63165;43.016;25.784;2022-12-29T10:36:54;101022.84;;;9.86;71.35
9523;BME280;63165;43.016;25.784;2022-12-29T10:39:29;101012.38;;;9.97;70.80
9523;BME280;63165;43.016;25.784;2022-12-29T10:42:04;101015.00;;;10.07;70.17
9523;BME280;63165;43.016;25.784;2022-12-29T10:44:36;101011.53;;;10.21;69.52
9523;BME280;63165;43.016;25.784;2022-12-29T10:47:07;101010.72;;;10.31;69.37
9523;BME280;63165;43.016;25.784;2022-12-29T10:49:41;101012.44;;;10.43;68.56
9523;BME280;63165;43.016;25.784;2022-12-29T10:52:11;101002.84;;;10.54;67.87
9523;BME280;63165;43.016;25.784;2022-12-29T10:54:46;101000.19;;;10.63;67.47
9523;BME280;63165;43.016;25.784;2022-12-29T10:57:24;100999.28;;;10.75;67.12
9523;BME280;63165;43.016;25.784;2022-12-29T10:59:53;100996.66;;;10.87;67.06
9523;BME280;63165;43.016;25.784;2022-12-29T11:05:21;100993.97;;;11.14;66.38
9523;BME280;63165;43.016;25.784;2022-12-29T11:07:53;100989.56;;;11.22;65.55
9523;BME280;63165;43.016;25.784;2022-12-29T11:10:36;100986.03;;;11.29;65.15
9523;BME280;63165;43.016;25.784;2022-12-29T11:13:11;100979.88;;;11.36;64.99
9523;BME280;63165;43.016;25.784;2022-12-29T11:15:40;100980.72;;;11.44;64.70
9523;BME280;63165;43.016;25.784;2022-12-29T11:18:18;100985.94;;;11.51;63.14
9523;BME280;63165;43.016;25.784;2022-12-29T11:20:47;100983.28;;;11.60;63.18
9523;BME280;63165;43.016;25.784;2022-12-29T11:23:28;100978.84;;;11.65;62.63
9523;BME280;63165;43.016;25.784;2022-12-29T11:26:24;100974.41;;;11.76;62.33
9523;BME280;63165;43.016;25.784;2022-12-29T11:29:23;100970.84;;;11.85;62.25
9523;BME280;63165;43.016;25.784;2022-12-29T11:31:52;100977.84;;;11.92;62.11
9523;BME280;63165;43.016;25.784;2022-12-29T11:34:22;100965.53;;;12.00;61.84
9523;BME280;63165;43.016;25.784;2022-12-29T11:36:52;100966.34;;;12.09;61.32
9523;BME280;63165;43.016;25.784;2022-12-29T11:39:38;100966.28;;;12.15;60.49
9523;BME280;63165;43.016;25.784;2022-12-29T11:42:14;100954.88;;;12.22;60.47
9523;BME280;63165;43.016;25.784;2022-12-29T11:44:44;100953.94;;;12.28;60.49
9523;BME280;63165;43.016;25.784;2022-12-29T11:47:25;100952.16;;;12.33;60.01
9523;BME280;63165;43.016;25.784;2022-12-29T11:49:55;100952.09;;;12.39;59.62
9523;BME280;63165;43.016;25.784;2022-12-29T11:52:25;100943.28;;;12.43;58.54
9523;BME280;63165;43.016;25.784;2022-12-29T11:54:55;100959.03;;;12.43;58.43
9523;BME280;63165;43.016;25.784;2022-12-29T11:57:25;100947.66;;;12.44;58.30
9523;BME280;63165;43.016;25.784;2022-12-29T11:59:53;100948.53;;;12.46;57.78
9523;BME280;63165;43.016;25.784;2022-12-29T12:02:36;100940.59;;;12.49;57.33
9523;BME280;63165;43.016;25.784;2022-12-29T12:05:13;100939.69;;;12.53;57.72
9523;BME280;63165;43.016;25.784;2022-12-29T12:07:43;100937.03;;;12.56;58.69
9523;BME280;63165;43.016;25.784;2022-12-29T12:10:17;100929.13;;;12.59;58.93
9523;BME280;63165;43.016;25.784;2022-12-29T12:12:51;100923.78;;;12.66;58.67
9523;BME280;63165;43.016;25.784;2022-12-29T12:15:22;100921.97;;;12.72;58.42
9523;BME280;63165;43.016;25.784;2022-12-29T12:17:54;100923.69;;;12.75;58.06
9523;BME280;63165;43.016;25.784;2022-12-29T12:20:28;100915.78;;;12.79;58.10
9523;BME280;63165;43.016;25.784;2022-12-29T12:23:08;100910.47;;;12.81;57.62
9523;BME280;63165;43.016;25.784;2022-12-29T12:25:43;100909.59;;;12.85;57.12
9523;BME280;63165;43.016;25.784;2022-12-29T12:28:19;100909.53;;;12.88;57.70
9523;BME280;63165;43.016;25.784;2022-12-29T12:30:50;100906.91;;;12.88;58.09
9523;BME280;63165;43.016;25.784;2022-12-29T12:33:27;100907.75;;;12.90;57.60
9523;BME280;63165;43.016;25.784;2022-12-29T12:36:10;100900.75;;;12.91;57.41
9523;BME280;63165;43.016;25.784;2022-12-29T12:38:46;100904.22;;;12.93;57.89
9523;BME280;63165;43.016;25.784;2022-12-29T12:41:23;100897.19;;;12.95;57.27
9523;BME280;63165;43.016;25.784;2022-12-29T12:44:00;100891.94;;;12.96;57.25
9523;BME280;63165;43.016;25.784;2022-12-29T12:47:03;100901.53;;;12.97;56.78
9523;BME280;63165;43.016;25.784;2022-12-29T12:53:13;100898.03;;;12.97;57.27
9523;BME280;63165;43.016;25.784;2022-12-29T12:55:56;100897.13;;;12.98;57.81
9523;BME280;63165;43.016;25.784;2022-12-29T12:58:31;100898.97;;;12.94;57.37
9523;BME280;63165;43.016;25.784;2022-12-29T13:01:11;100902.47;;;12.92;57.28
9523;BME280;63165;43.016;25.784;2022-12-29T13:03:51;100903.38;;;12.91;57.03
9523;BME280;63165;43.016;25.784;2022-12-29T13:06:29;100908.63;;;12.91;57.77
9523;BME280;63165;43.016;25.784;2022-12-29T13:09:28;100906.03;;;12.89;57.05
9523;BME280;63165;43.016;25.784;2022-12-29T13:12:08;100906.03;;;12.86;57.35
9523;BME280;63165;43.016;25.784;2022-12-29T13:14:50;100913.91;;;12.88;57.67
9523;BME280;63165;43.016;25.784;2022-12-29T13:17:32;100915.66;;;12.89;57.36
9523;BME280;63165;43.016;25.784;2022-12-29T13:20:15;100915.63;;;12.90;57.18
9523;BME280;63165;43.016;25.784;2022-12-29T13:22:53;100905.94;;;12.95;56.69
9523;BME280;63165;43.016;25.784;2022-12-29T13:25:29;100910.31;;;12.96;56.23
9523;BME280;63165;43.016;25.784;2022-12-29T13:28:06;100914.63;;;13.00;56.43